createdAt,value
2018-04-11T00:01:16.550Z,2.60
2018-04-11T00:03:53.264Z,3.23
2018-04-11T00:06:28.257Z,3.00
2018-04-11T00:09:00.859Z,2.60
2018-04-11T00:11:39.365Z,2.07
2018-04-11T00:14:12.981Z,2.17
2018-04-11T00:16:50.830Z,3.10
2018-04-11T00:19:22.985Z,3.70
2018-04-11T00:21:56.017Z,2.60
2018-04-11T00:24:32.617Z,2.67
2018-04-11T00:27:07.713Z,2.87
2018-04-11T00:29:43.792Z,1.73
2018-04-11T00:32:20.384Z,2.47
2018-04-11T00:34:55.270Z,2.90
2018-04-11T00:37:29.015Z,5.80
2018-04-11T00:40:07.044Z,2.77
2018-04-11T00:42:49.644Z,2.10
2018-04-11T00:45:28.228Z,4.23
2018-04-11T00:48:03.982Z,3.27
2018-04-11T00:50:41.720Z,2.83
2018-04-11T00:53:29.841Z,2.40
2018-04-11T00:55:59.243Z,3.23
2018-04-11T00:58:30.836Z,2.40
2018-04-11T01:01:00.227Z,5.20
2018-04-11T01:03:29.625Z,2.63
2018-04-11T01:06:00.636Z,2.13
2018-04-11T01:08:32.264Z,2.60
2018-04-11T01:11:10.731Z,4.13
2018-04-11T01:13:42.298Z,2.80
2018-04-11T01:16:11.869Z,3.03
2018-04-11T01:18:41.271Z,2.77
2018-04-11T01:21:10.987Z,2.67
2018-04-11T01:23:40.356Z,4.00
2018-04-11T01:26:09.799Z,2.97
2018-04-11T01:28:39.225Z,2.23
2018-04-11T01:31:08.618Z,4.30
2018-04-11T01:33:38.025Z,3.43
2018-04-11T01:36:07.422Z,3.10
2018-04-11T01:38:43.881Z,2.13
2018-04-11T01:41:15.260Z,3.07
2018-04-11T01:43:59.022Z,3.23
2018-04-11T01:46:37.856Z,2.80
2018-04-11T01:49:19.141Z,3.47
2018-04-11T01:51:52.780Z,3.33
2018-04-11T01:54:32.868Z,2.67
2018-04-11T01:57:11.292Z,3.80
2018-04-11T01:59:55.481Z,3.07
2018-04-11T02:02:30.740Z,3.60
2018-04-11T02:05:03.524Z,2.67
2018-04-11T02:07:41.217Z,3.87
2018-04-11T02:10:10.627Z,6.93
2018-04-11T02:12:40.095Z,3.10
2018-04-11T02:15:24.244Z,3.13
2018-04-11T02:17:58.480Z,4.97
2018-04-11T02:20:27.896Z,3.40
2018-04-11T02:22:57.311Z,4.23
2018-04-11T02:25:27.024Z,2.80
2018-04-11T02:27:56.424Z,3.70
2018-04-11T02:30:25.828Z,4.20
2018-04-11T02:32:55.235Z,4.10
2018-04-11T02:35:24.631Z,3.53
2018-04-11T02:37:54.071Z,3.33
2018-04-11T02:40:23.464Z,3.43
2018-04-11T02:42:52.878Z,4.23
2018-04-11T02:45:22.286Z,4.30
2018-04-11T02:47:51.689Z,2.50
2018-04-11T02:50:21.133Z,3.10
2018-04-11T02:52:50.538Z,3.00
2018-04-11T02:55:19.937Z,3.07
2018-04-11T02:57:49.364Z,3.10
2018-04-11T03:00:18.452Z,3.30
2018-04-11T03:02:47.921Z,3.30
2018-04-11T03:05:17.320Z,3.03
2018-04-11T03:07:46.729Z,2.40
2018-04-11T03:10:16.134Z,2.80
2018-04-11T03:12:45.542Z,3.70
2018-04-11T03:15:14.954Z,5.63
2018-04-11T03:17:44.359Z,3.63
2018-04-11T03:20:13.761Z,4.17
2018-04-11T03:22:43.269Z,2.67
2018-04-11T03:25:12.860Z,3.53
2018-04-11T03:27:42.281Z,3.00
2018-04-11T03:30:11.693Z,3.30
2018-04-11T03:32:41.091Z,4.53
2018-04-11T03:35:10.501Z,4.80
2018-04-11T03:37:39.897Z,3.30
2018-04-11T03:40:09.335Z,6.03
2018-04-11T03:42:38.763Z,4.53
2018-04-11T03:45:08.369Z,3.60
2018-04-11T03:47:37.781Z,5.80
2018-04-11T03:50:07.190Z,4.07
2018-04-11T03:52:36.603Z,4.70
2018-04-11T03:55:06.110Z,3.80
2018-04-11T03:57:35.505Z,3.07
2018-04-11T04:00:04.897Z,3.77
2018-04-11T04:02:34.318Z,4.77
2018-04-11T04:05:03.574Z,4.10
2018-04-11T04:07:32.989Z,3.13
2018-04-11T04:10:02.391Z,4.30
2018-04-11T04:12:31.792Z,4.50
2018-04-11T04:15:06.782Z,4.30
2018-04-11T04:17:41.652Z,5.10
2018-04-11T04:20:28.593Z,4.63
2018-04-11T04:22:58.122Z,3.63
2018-04-11T04:25:27.317Z,5.10
2018-04-11T04:27:56.725Z,6.90
2018-04-11T04:30:26.350Z,3.33
2018-04-11T04:32:55.518Z,6.60
2018-04-11T04:35:24.922Z,4.10
2018-04-11T04:37:54.357Z,4.47
2018-04-11T04:40:23.767Z,4.20
2018-04-11T04:42:53.165Z,3.83
2018-04-11T04:45:22.564Z,4.23
2018-04-11T04:47:51.973Z,4.10
2018-04-11T04:50:21.373Z,5.30
2018-04-11T04:52:50.778Z,6.10
2018-04-11T04:55:20.182Z,5.70
2018-04-11T04:57:49.584Z,4.00
2018-04-11T05:00:19.028Z,3.33
2018-04-11T05:02:48.204Z,3.83
2018-04-11T05:05:17.619Z,4.00
2018-04-11T05:07:47.131Z,3.23
2018-04-11T05:10:16.536Z,4.30
2018-04-11T05:12:45.938Z,3.30
2018-04-11T05:15:15.112Z,4.30
2018-04-11T05:17:44.517Z,3.50
2018-04-11T05:20:13.672Z,5.13
2018-04-11T05:22:43.133Z,3.20
2018-04-11T05:25:12.294Z,4.50
2018-04-11T05:27:41.481Z,3.67
2018-04-11T05:30:10.881Z,7.13
2018-04-11T05:32:40.071Z,3.00
2018-04-11T05:35:09.473Z,6.63
2018-04-11T05:37:38.875Z,3.07
2018-04-11T05:40:08.269Z,4.13
2018-04-11T05:42:37.673Z,3.33
2018-04-11T05:45:07.177Z,5.90
2018-04-11T05:47:36.585Z,4.90
2018-04-11T05:50:06.099Z,3.80
2018-04-11T05:52:35.513Z,3.80
2018-04-11T05:55:04.929Z,4.50
2018-04-11T05:57:34.325Z,4.13
2018-04-11T06:00:03.427Z,6.03
2018-04-11T06:02:33.075Z,4.43
2018-04-11T06:05:02.499Z,3.20
2018-04-11T06:07:31.926Z,8.00
2018-04-11T06:10:01.396Z,2.97
2018-04-11T06:12:30.823Z,3.37
2018-04-11T06:15:00.227Z,3.40
2018-04-11T06:17:29.642Z,3.97
2018-04-11T06:19:59.056Z,3.10
2018-04-11T06:22:28.598Z,3.20
2018-04-11T06:24:58.078Z,4.37
2018-04-11T06:27:27.488Z,3.40
2018-04-11T06:29:56.909Z,3.83
2018-04-11T06:32:26.562Z,4.13
2018-04-11T06:34:55.992Z,2.97
2018-04-11T06:37:25.398Z,2.77
2018-04-11T06:39:54.883Z,5.63
2018-04-11T06:42:24.277Z,3.50
2018-04-11T06:44:53.697Z,3.83
2018-04-11T06:47:23.121Z,3.63
2018-04-11T06:49:52.736Z,2.60
2018-04-11T06:52:22.150Z,2.80
2018-04-11T06:54:51.541Z,5.20
2018-04-11T06:57:20.724Z,4.20
2018-04-11T06:59:49.912Z,2.80
2018-04-11T07:02:19.321Z,2.50
2018-04-11T07:04:48.716Z,3.30
2018-04-11T07:07:18.161Z,3.73
2018-04-11T07:09:47.641Z,4.20
2018-04-11T07:12:17.069Z,4.77
2018-04-11T07:14:46.473Z,7.63
2018-04-11T07:17:15.869Z,2.70
2018-04-11T07:19:45.291Z,3.30
2018-04-11T07:22:14.695Z,2.30
2018-04-11T07:24:43.874Z,3.93
2018-04-11T07:27:13.276Z,2.20
2018-04-11T07:29:42.709Z,10.23
2018-04-11T07:32:11.772Z,3.20
2018-04-11T07:34:41.189Z,7.20
2018-04-11T07:37:10.605Z,3.40
2018-04-11T07:39:39.990Z,3.57
2018-04-11T07:42:09.404Z,3.50
2018-04-11T07:44:38.812Z,3.10
2018-04-11T07:47:08.221Z,2.80
2018-04-11T07:49:37.625Z,3.10
2018-04-11T07:52:06.798Z,3.20
2018-04-11T07:54:36.272Z,5.60
2018-04-11T07:57:05.819Z,3.43
2018-04-11T07:59:35.212Z,4.40
2018-04-11T08:02:04.406Z,2.70
2018-04-11T08:04:33.571Z,8.13
2018-04-11T08:07:02.966Z,2.43
2018-04-11T08:09:32.398Z,3.13
2018-04-11T08:12:01.566Z,8.00
2018-04-11T08:14:30.769Z,2.10
2018-04-11T08:17:00.172Z,4.40
2018-04-11T08:19:29.369Z,1.70
2018-04-11T08:21:58.554Z,5.23
2018-04-11T08:24:27.953Z,2.60
2018-04-11T08:26:57.138Z,2.03
2018-04-11T08:29:26.324Z,3.20
2018-04-11T08:31:55.687Z,1.20
2018-04-11T08:34:25.289Z,1.10
2018-04-11T08:36:54.701Z,1.17
2018-04-11T08:39:24.089Z,2.80
2018-04-11T08:41:53.505Z,1.60
2018-04-11T08:44:22.901Z,2.33
2018-04-11T08:46:52.292Z,2.37
2018-04-11T08:49:21.697Z,3.97
2018-04-11T08:51:51.101Z,5.50
2018-04-11T08:54:20.506Z,1.80
2018-04-11T08:56:49.905Z,2.20
2018-04-11T08:59:19.329Z,8.30
2018-04-11T09:01:48.740Z,3.03
2018-04-11T09:04:18.167Z,2.00
2018-04-11T09:06:47.549Z,4.60
2018-04-11T09:09:16.949Z,1.20
2018-04-11T09:11:46.357Z,1.87
2018-04-11T09:14:15.761Z,1.10
2018-04-11T09:16:45.173Z,2.07
2018-04-11T09:19:14.584Z,1.13
2018-04-11T09:21:43.987Z,3.33
2018-04-11T09:24:13.394Z,2.00
2018-04-11T09:26:42.812Z,1.13
2018-04-11T09:29:12.209Z,1.33
2018-04-11T09:31:41.688Z,1.93
2018-04-11T09:34:11.243Z,7.60
2018-04-11T09:36:40.647Z,3.00
2018-04-11T09:39:10.061Z,3.23
2018-04-11T09:41:39.449Z,1.50
2018-04-11T09:44:08.865Z,2.17
2018-04-11T09:46:38.261Z,2.37
2018-04-11T09:49:07.662Z,4.00
2018-04-11T09:51:37.091Z,2.40
2018-04-11T09:54:06.489Z,2.60
2018-04-11T09:56:35.926Z,1.50
2018-04-11T09:59:05.329Z,2.97
2018-04-11T10:01:40.328Z,2.77
2018-04-11T10:04:09.949Z,1.90
2018-04-11T10:06:39.362Z,1.60
2018-04-11T10:09:08.753Z,1.60
2018-04-11T10:11:38.237Z,2.00
2018-04-11T10:14:07.646Z,2.80
2018-04-11T10:16:37.046Z,4.07
2018-04-11T10:19:06.492Z,2.63
2018-04-11T10:21:35.841Z,3.00
2018-04-11T10:24:05.045Z,1.87
2018-04-11T10:26:34.441Z,1.80
2018-04-11T10:29:03.853Z,1.60
2018-04-11T10:31:33.257Z,1.50
2018-04-11T10:34:02.656Z,1.90
2018-04-11T10:36:32.061Z,3.17
2018-04-11T10:39:01.463Z,2.00
2018-04-11T10:41:30.881Z,1.20
2018-04-11T10:44:00.268Z,2.63
2018-04-11T10:46:29.994Z,1.40
2018-04-11T10:48:59.394Z,1.27
2018-04-11T10:51:28.802Z,3.63
2018-04-11T10:56:34.080Z,2.53
2018-04-11T10:59:03.481Z,9.40
2018-04-11T11:01:32.890Z,6.43
2018-04-11T11:04:02.295Z,2.37
2018-04-11T11:06:31.697Z,9.00
2018-04-11T11:09:01.137Z,6.13
2018-04-11T11:11:30.534Z,5.60
2018-04-11T11:13:59.952Z,3.30
2018-04-11T11:16:35.883Z,1.80
2018-04-11T11:19:05.401Z,2.33
2018-04-11T11:21:34.805Z,1.70
2018-04-11T11:24:04.197Z,2.00
2018-04-11T11:26:33.377Z,1.87
2018-04-11T11:29:02.778Z,2.87
2018-04-11T11:31:32.205Z,3.53
2018-04-11T11:34:01.415Z,4.60
2018-04-11T11:36:30.618Z,17.10
2018-04-11T11:38:59.805Z,91.57
2018-04-11T11:41:29.001Z,12.00
2018-04-11T11:43:58.404Z,2.27
2018-04-11T11:46:27.855Z,3.33
2018-04-11T11:48:57.260Z,4.43
2018-04-11T11:51:26.661Z,3.37
2018-04-11T11:53:56.060Z,2.60
2018-04-11T11:56:25.465Z,3.50
2018-04-11T11:58:54.882Z,2.63
2018-04-11T12:01:24.271Z,4.37
2018-04-11T12:03:53.685Z,6.23
2018-04-11T12:06:23.068Z,2.70
2018-04-11T12:08:52.526Z,2.60
2018-04-11T12:11:21.952Z,4.23
2018-04-11T12:13:51.379Z,6.30
2018-04-11T12:16:20.785Z,4.20
2018-04-11T12:18:50.206Z,6.23
2018-04-11T12:21:19.612Z,4.00
2018-04-11T12:23:49.024Z,4.00
2018-04-11T12:26:18.431Z,6.10
2018-04-11T12:28:47.819Z,5.40
2018-04-11T12:31:17.228Z,3.83
2018-04-11T12:33:46.613Z,5.20
2018-04-11T12:36:16.026Z,3.33
2018-04-11T12:38:45.438Z,2.60
2018-04-11T12:41:14.829Z,3.47
2018-04-11T12:43:44.243Z,3.60
2018-04-11T12:46:14.320Z,3.27
2018-04-11T12:48:48.346Z,2.10
2018-04-11T12:51:17.573Z,2.43
2018-04-11T12:53:47.116Z,2.90
2018-04-11T12:56:16.663Z,3.37
2018-04-11T12:58:51.494Z,2.67
2018-04-11T13:01:37.424Z,2.50
2018-04-11T13:04:06.994Z,4.10
2018-04-11T13:06:36.536Z,4.13
2018-04-11T13:09:05.719Z,6.60
2018-04-11T13:11:35.505Z,6.77
2018-04-11T13:14:05.027Z,4.43
2018-04-11T13:16:34.587Z,4.50
2018-04-11T13:19:03.867Z,2.93
2018-04-11T13:21:33.482Z,5.43
2018-04-11T13:24:03.446Z,4.77
2018-04-11T13:26:33.076Z,3.30
2018-04-11T13:29:02.701Z,4.70
2018-04-11T13:31:32.343Z,2.60
2018-04-11T13:34:01.564Z,3.83
2018-04-11T13:39:18.606Z,3.03
2018-04-11T13:41:48.103Z,4.23
2018-04-11T13:44:17.552Z,2.93
2018-04-11T13:46:46.797Z,2.43
2018-04-11T13:49:16.310Z,3.33
2018-04-11T13:51:45.845Z,2.93
2018-04-11T13:54:15.458Z,3.90
2018-04-11T13:56:44.966Z,2.40
2018-04-11T13:59:29.718Z,4.00
2018-04-11T14:02:01.240Z,3.90
2018-04-11T14:04:38.325Z,2.87
2018-04-11T14:07:07.853Z,4.03
2018-04-11T14:09:38.172Z,4.30
2018-04-11T14:12:07.778Z,3.17
2018-04-11T14:14:39.591Z,3.60
2018-04-11T14:17:08.968Z,5.57
2018-04-11T14:19:41.052Z,4.33
2018-04-11T14:22:10.684Z,3.87
2018-04-11T14:24:39.934Z,3.00
2018-04-11T14:27:09.431Z,3.93
2018-04-11T14:29:38.714Z,3.80
2018-04-11T14:32:08.478Z,3.87
2018-04-11T14:34:38.006Z,4.57
2018-04-11T14:37:08.516Z,2.70
2018-04-11T14:39:38.079Z,6.50
2018-04-11T14:42:07.835Z,7.63
2018-04-11T14:44:39.771Z,3.60
2018-04-11T14:47:09.120Z,3.90
2018-04-11T14:49:39.792Z,6.23
2018-04-11T14:52:12.315Z,3.73
2018-04-11T14:54:41.941Z,7.47
2018-04-11T14:57:14.650Z,3.27
2018-04-11T15:02:36.606Z,5.60
2018-04-11T15:05:06.279Z,5.20
2018-04-11T15:07:50.046Z,7.67
2018-04-11T15:10:19.388Z,3.20
2018-04-11T15:12:48.246Z,4.73
2018-04-11T15:15:16.836Z,5.10
2018-04-11T15:17:45.116Z,10.13
2018-04-11T15:20:13.376Z,5.00
2018-04-11T15:22:41.857Z,4.60
2018-04-11T15:25:10.368Z,7.70
2018-04-11T15:31:04.822Z,5.27
2018-04-11T15:33:34.049Z,4.60
2018-04-11T15:36:11.076Z,8.47
2018-04-11T15:41:14.653Z,6.90
2018-04-11T15:43:43.154Z,9.63
2018-04-11T15:46:24.708Z,4.00
2018-04-11T15:48:53.234Z,7.10
2018-04-11T15:51:21.727Z,8.00
2018-04-11T15:53:50.356Z,13.90
2018-04-11T15:56:18.868Z,5.83
2018-04-11T15:58:47.547Z,3.70
2018-04-11T16:01:16.252Z,3.80
2018-04-11T16:03:44.541Z,4.80
2018-04-11T16:06:13.120Z,4.70
2018-04-11T16:08:41.934Z,6.03
2018-04-11T16:11:11.310Z,6.10
2018-04-11T16:13:39.642Z,7.43
2018-04-11T16:16:09.189Z,6.57
2018-04-11T16:18:40.466Z,5.73
2018-04-11T16:21:09.047Z,7.23
2018-04-11T16:23:37.781Z,4.23
2018-04-11T16:28:40.636Z,6.27
2018-04-11T16:31:09.269Z,6.63
2018-04-11T16:33:37.532Z,10.03
2018-04-11T16:36:06.181Z,5.40
2018-04-11T16:38:34.749Z,4.40
2018-04-11T16:41:04.353Z,5.20
2018-04-11T16:43:32.850Z,5.30
2018-04-11T16:46:02.190Z,5.07
2018-04-11T16:48:30.755Z,4.83
2018-04-11T16:50:59.254Z,7.30
2018-04-11T16:53:28.336Z,7.50
2018-04-11T16:55:57.613Z,6.80
2018-04-11T16:58:27.098Z,7.97
2018-04-11T17:00:55.606Z,7.50
2018-04-11T17:03:24.175Z,7.43
2018-04-11T17:05:52.928Z,5.73
2018-04-11T17:08:21.630Z,7.10
2018-04-11T17:10:49.927Z,5.43
2018-04-11T17:13:18.419Z,5.70
2018-04-11T17:15:47.363Z,6.50
2018-04-11T17:18:16.744Z,7.17
2018-04-11T17:20:56.555Z,4.60
2018-04-11T17:23:36.362Z,4.30
2018-04-11T17:26:16.808Z,9.30
2018-04-11T17:28:56.463Z,4.57
2018-04-11T17:31:29.931Z,5.00
2018-04-11T17:33:58.863Z,6.20
2018-04-11T17:36:27.338Z,5.90
2018-04-11T17:38:56.795Z,6.53
2018-04-11T17:41:25.413Z,7.97
2018-04-11T17:43:54.446Z,6.90
2018-04-11T17:46:23.937Z,8.77
2018-04-11T17:51:29.526Z,8.70
2018-04-11T17:54:09.831Z,8.00
2018-04-11T17:56:41.633Z,7.00
2018-04-11T17:59:10.115Z,10.03
2018-04-11T18:01:46.129Z,10.73
2018-04-11T18:04:14.826Z,8.10
2018-04-11T18:06:43.336Z,17.33
2018-04-11T18:09:11.865Z,10.10
2018-04-11T18:14:15.248Z,13.73
2018-04-11T18:16:43.753Z,8.47
2018-04-11T18:19:11.978Z,12.10
2018-04-11T18:21:40.514Z,12.87
2018-04-11T18:24:09.009Z,13.57
2018-04-11T18:26:37.489Z,10.87
2018-04-11T18:29:06.024Z,15.20
2018-04-11T18:31:39.026Z,9.83
2018-04-11T18:34:07.659Z,12.13
2018-04-11T18:36:36.942Z,13.57
2018-04-11T18:39:04.592Z,11.47
2018-04-11T18:41:33.159Z,10.40
2018-04-11T18:44:02.657Z,14.83
2018-04-11T18:46:31.946Z,11.10
2018-04-11T18:49:20.350Z,10.30
2018-04-11T18:51:48.945Z,11.10
2018-04-11T18:54:21.525Z,11.80
2018-04-11T18:56:50.109Z,10.67
2018-04-11T18:59:18.649Z,12.63
2018-04-11T19:01:48.434Z,12.90
2018-04-11T19:04:17.795Z,12.90
2018-04-11T19:09:26.203Z,15.30
2018-04-11T19:11:54.907Z,14.47
2018-04-11T19:14:25.170Z,11.70
2018-04-11T19:19:29.962Z,15.17
2018-04-11T19:21:58.555Z,14.40
2018-04-11T19:24:27.094Z,14.00
2018-04-11T19:26:55.387Z,19.13
2018-04-11T19:29:23.869Z,15.67
2018-04-11T19:31:52.388Z,13.40
2018-04-11T19:34:21.268Z,15.13
2018-04-11T19:36:50.643Z,15.17
2018-04-11T19:39:19.251Z,19.80
2018-04-11T19:41:49.003Z,16.67
2018-04-11T19:44:17.267Z,19.33
2018-04-11T19:46:45.707Z,20.60
2018-04-11T19:49:14.165Z,19.37
2018-04-11T19:51:51.853Z,19.50
2018-04-11T19:54:20.329Z,19.27
2018-04-11T19:56:48.786Z,19.00
2018-04-11T19:59:17.450Z,21.30
2018-04-11T20:01:45.957Z,17.50
2018-04-11T20:04:15.649Z,22.97
2018-04-11T20:06:43.967Z,24.03
2018-04-11T20:09:12.461Z,20.70
2018-04-11T20:11:40.928Z,28.10
2018-04-11T20:14:09.164Z,24.87
2018-04-11T20:16:37.890Z,26.00
2018-04-11T20:19:07.126Z,25.43
2018-04-11T20:21:35.652Z,29.47
2018-04-11T20:24:04.191Z,31.73
2018-04-11T20:26:32.720Z,26.17
2018-04-11T20:29:01.311Z,27.00
2018-04-11T20:31:29.769Z,30.10
2018-04-11T20:33:58.150Z,28.63
2018-04-11T20:36:27.076Z,32.33
2018-04-11T20:38:55.739Z,29.73
2018-04-11T20:41:25.370Z,27.33
2018-04-11T20:43:53.608Z,31.63
2018-04-11T20:46:23.209Z,30.47
2018-04-11T20:48:51.672Z,31.50
2018-04-11T20:51:20.154Z,33.10
2018-04-11T20:53:48.631Z,31.20
2018-04-11T20:56:17.046Z,32.80
2018-04-11T20:58:45.542Z,30.60
2018-04-11T21:01:14.044Z,30.80
2018-04-11T21:03:42.578Z,26.90
2018-04-11T21:06:11.207Z,32.27
2018-04-11T21:08:39.737Z,33.20
2018-04-11T21:11:08.979Z,39.00
2018-04-11T21:13:37.481Z,33.30
2018-04-11T21:16:06.014Z,32.13
2018-04-11T21:18:34.498Z,32.17
2018-04-11T21:21:02.971Z,34.40
2018-04-11T21:23:31.490Z,33.73
2018-04-11T21:25:59.984Z,33.23
2018-04-11T21:28:28.490Z,32.43
2018-04-11T21:30:57.014Z,34.23
2018-04-11T21:33:25.985Z,33.50
2018-04-11T21:35:54.667Z,35.63
2018-04-11T21:38:23.187Z,36.87
2018-04-11T21:40:51.653Z,34.43
2018-04-11T21:43:20.185Z,30.90
2018-04-11T21:45:49.665Z,31.60
2018-04-11T21:48:18.188Z,32.60
2018-04-11T21:50:47.226Z,29.67
2018-04-11T21:53:16.420Z,32.73
2018-04-11T21:55:44.671Z,30.83
2018-04-11T21:58:13.374Z,30.80
2018-04-11T22:00:41.882Z,32.67
2018-04-11T22:03:10.377Z,29.67
2018-04-11T22:05:38.912Z,36.43
2018-04-11T22:08:08.164Z,35.60
2018-04-11T22:10:36.628Z,32.20
2018-04-11T22:13:04.874Z,29.20
2018-04-11T22:15:33.313Z,35.87
2018-04-11T22:18:02.561Z,38.53
2018-04-11T22:20:31.071Z,31.00
2018-04-11T22:22:59.528Z,32.40
2018-04-11T22:25:27.687Z,24.70
2018-04-11T22:27:56.918Z,36.43
2018-04-11T22:30:25.351Z,32.07
2018-04-11T22:32:53.850Z,28.87
2018-04-11T22:35:22.348Z,26.57
2018-04-11T22:37:51.014Z,28.53
2018-04-11T22:40:19.511Z,33.50
2018-04-11T22:42:47.993Z,31.40
2018-04-11T22:45:16.482Z,32.40
2018-04-11T22:47:46.127Z,25.33
2018-04-11T22:50:14.418Z,30.83
2018-04-11T22:52:43.218Z,27.00
2018-04-11T22:55:11.696Z,31.97
2018-04-11T22:57:40.166Z,29.90
2018-04-11T23:00:07.999Z,29.70
2018-04-11T23:02:37.621Z,31.30
2018-04-11T23:05:07.647Z,26.30
2018-04-11T23:07:37.252Z,31.00
2018-04-11T23:10:05.712Z,30.90
2018-04-11T23:12:34.737Z,30.73
2018-04-11T23:15:02.960Z,32.67
2018-04-11T23:17:31.233Z,30.70
2018-04-11T23:19:59.470Z,28.67
2018-04-11T23:22:27.962Z,28.13
2018-04-11T23:24:56.972Z,27.30
2018-04-11T23:27:26.277Z,31.40
2018-04-11T23:29:54.711Z,29.20
2018-04-11T23:32:23.194Z,23.17
2018-04-11T23:34:51.446Z,33.60
2018-04-11T23:37:19.891Z,33.20
2018-04-11T23:39:49.195Z,30.60
2018-04-11T23:42:17.868Z,31.50
2018-04-11T23:44:47.105Z,33.10
2018-04-11T23:47:15.758Z,28.70
2018-04-11T23:49:45.319Z,27.70
2018-04-11T23:52:14.861Z,25.97
2018-04-11T23:54:44.350Z,26.53
2018-04-11T23:57:13.811Z,25.90
2018-04-11T23:59:43.290Z,30.27
